createdAt,value
2019-04-06T00:00:03.695Z,3.70
2019-04-06T00:02:36.605Z,3.60
2019-04-06T00:05:08.115Z,3.60
2019-04-06T00:07:37.397Z,3.50
2019-04-06T00:10:07.091Z,3.50
2019-04-06T00:12:36.644Z,3.40
2019-04-06T00:15:06.472Z,3.40
2019-04-06T00:17:36.530Z,3.30
2019-04-06T00:20:06.435Z,3.30
2019-04-06T00:22:36.220Z,3.20
2019-04-06T00:25:05.503Z,3.20
2019-04-06T00:27:35.019Z,3.20
2019-04-06T00:30:04.942Z,3.10
2019-04-06T00:32:59.767Z,3.10
2019-04-06T00:35:29.355Z,3.10
2019-04-06T00:37:58.912Z,3.10
2019-04-06T00:40:28.063Z,3.00
2019-04-06T00:42:57.213Z,2.90
2019-04-06T00:45:27.071Z,2.90
2019-04-06T00:47:56.516Z,2.90
2019-04-06T00:50:25.973Z,2.90
2019-04-06T00:52:55.790Z,2.80
2019-04-06T00:55:25.264Z,2.70
2019-04-06T00:57:54.424Z,2.70
2019-04-06T01:00:23.744Z,2.60
2019-04-06T01:02:53.303Z,2.60
2019-04-06T01:05:22.719Z,2.50
2019-04-06T01:07:52.205Z,2.40
2019-04-06T01:10:21.612Z,2.40
2019-04-06T01:12:51.107Z,2.40
2019-04-06T01:15:20.948Z,2.40
2019-04-06T01:17:50.437Z,2.30
2019-04-06T01:20:20.468Z,2.30
2019-04-06T01:22:49.599Z,2.30
2019-04-06T01:25:19.027Z,2.30
2019-04-06T01:27:48.171Z,2.30
2019-04-06T01:30:17.364Z,2.20
2019-04-06T01:32:46.492Z,2.20
2019-04-06T01:35:15.923Z,2.20
2019-04-06T01:37:45.463Z,2.10
2019-04-06T01:40:14.779Z,2.10
2019-04-06T01:42:43.911Z,2.10
2019-04-06T01:45:13.019Z,2.00
2019-04-06T01:47:42.458Z,2.00
2019-04-06T01:50:11.668Z,2.00
2019-04-06T01:52:41.171Z,2.00
2019-04-06T01:55:11.017Z,2.00
2019-04-06T01:57:40.585Z,1.90
2019-04-06T02:00:11.827Z,1.90
2019-04-06T02:02:43.513Z,1.90
2019-04-06T02:05:12.986Z,1.90
2019-04-06T02:07:42.186Z,1.80
2019-04-06T02:10:11.611Z,1.80
2019-04-06T02:12:42.120Z,1.80
2019-04-06T02:15:11.862Z,1.80
2019-04-06T02:17:41.364Z,1.80
2019-04-06T02:20:11.079Z,1.70
2019-04-06T02:22:40.297Z,1.70
2019-04-06T02:25:09.398Z,1.70
2019-04-06T02:27:38.856Z,1.70
2019-04-06T02:30:31.004Z,1.60
2019-04-06T02:33:31.477Z,1.60
2019-04-06T02:36:11.395Z,1.60
2019-04-06T02:38:57.560Z,1.50
2019-04-06T02:41:44.915Z,1.50
2019-04-06T02:44:14.146Z,1.40
2019-04-06T02:46:43.408Z,1.30
2019-04-06T02:49:13.687Z,1.30
2019-04-06T02:51:42.864Z,1.20
2019-04-06T02:54:12.651Z,1.20
2019-04-06T02:56:46.788Z,1.20
2019-04-06T02:59:13.971Z,1.10
2019-04-06T03:01:43.504Z,1.10
2019-04-06T03:04:12.641Z,1.10
2019-04-06T03:06:42.406Z,1.10
2019-04-06T03:09:12.406Z,1.10
2019-04-06T03:11:41.534Z,1.10
2019-04-06T03:14:11.483Z,1.10
2019-04-06T03:16:40.687Z,1.10
2019-04-06T03:19:09.915Z,1.10
2019-04-06T03:21:39.811Z,1.10
2019-04-06T03:24:09.395Z,1.20
2019-04-06T03:26:38.955Z,1.10
2019-04-06T03:29:08.398Z,1.10
2019-04-06T03:31:38.241Z,1.10
2019-04-06T03:34:07.719Z,1.00
2019-04-06T03:36:37.236Z,1.00
2019-04-06T03:39:07.769Z,1.00
2019-04-06T03:41:37.584Z,1.00
2019-04-06T03:44:06.797Z,0.90
2019-04-06T03:46:36.255Z,0.90
2019-04-06T03:49:06.218Z,0.90
2019-04-06T03:51:35.707Z,0.90
2019-04-06T03:54:05.525Z,0.80
2019-04-06T03:56:34.622Z,0.80
2019-04-06T03:59:04.299Z,0.80
2019-04-06T04:01:33.518Z,0.80
2019-04-06T04:04:03.058Z,0.80
2019-04-06T04:06:32.702Z,0.70
2019-04-06T04:09:02.256Z,0.70
2019-04-06T04:11:31.660Z,0.70
2019-04-06T04:14:01.173Z,0.70
2019-04-06T04:16:30.895Z,0.70
2019-04-06T04:19:00.783Z,0.70
2019-04-06T04:21:30.607Z,0.60
2019-04-06T04:24:00.115Z,0.60
2019-04-06T04:26:29.250Z,0.60
2019-04-06T04:28:58.707Z,0.60
2019-04-06T04:31:27.891Z,0.50
2019-04-06T04:33:57.387Z,0.50
2019-04-06T04:36:26.829Z,0.40
2019-04-06T04:38:56.051Z,0.40
2019-04-06T04:41:25.953Z,0.40
2019-04-06T04:43:55.459Z,0.30
2019-04-06T04:46:24.929Z,0.30
2019-04-06T04:48:54.443Z,0.30
2019-04-06T04:51:23.648Z,0.30
2019-04-06T04:53:53.822Z,0.30
2019-04-06T04:56:23.236Z,0.20
2019-04-06T04:58:53.219Z,0.20
2019-04-06T05:01:22.767Z,0.20
2019-04-06T05:03:52.517Z,0.20
2019-04-06T05:06:22.338Z,0.10
2019-04-06T05:08:51.850Z,0.10
2019-04-06T05:11:21.438Z,0.20
2019-04-06T05:13:52.795Z,0.20
2019-04-06T05:16:22.936Z,0.20
2019-04-06T05:18:52.775Z,0.30
2019-04-06T05:21:21.886Z,0.30
2019-04-06T05:23:51.367Z,0.30
2019-04-06T05:26:21.286Z,0.30
2019-04-06T05:29:09.837Z,0.40
2019-04-06T05:31:40.154Z,0.40
2019-04-06T05:34:09.739Z,0.30
2019-04-06T05:36:39.563Z,0.50
2019-04-06T05:39:08.780Z,0.50
2019-04-06T05:41:37.958Z,0.60
2019-04-06T05:44:07.641Z,0.60
2019-04-06T05:46:37.484Z,0.60
2019-04-06T05:49:07.322Z,0.70
2019-04-06T05:51:36.984Z,0.70
2019-04-06T05:54:06.515Z,0.70
2019-04-06T05:56:36.410Z,0.80
2019-04-06T05:59:05.831Z,0.80
2019-04-06T06:01:35.623Z,0.90
2019-04-06T06:04:04.770Z,0.90
2019-04-06T06:06:34.248Z,1.00
2019-04-06T06:09:06.409Z,1.10
2019-04-06T06:11:36.040Z,1.20
2019-04-06T06:14:05.725Z,1.40
2019-04-06T06:16:34.911Z,1.50
2019-04-06T06:19:04.084Z,1.50
2019-04-06T06:21:34.125Z,1.60
2019-04-06T06:24:03.640Z,1.70
2019-04-06T06:26:33.668Z,1.80
2019-04-06T06:29:03.520Z,1.90
2019-04-06T06:31:33.308Z,2.00
2019-04-06T06:34:02.415Z,2.20
2019-04-06T06:36:31.550Z,2.30
2019-04-06T06:39:00.975Z,2.40
2019-04-06T06:41:31.027Z,2.50
2019-04-06T06:44:00.870Z,2.60
2019-04-06T06:46:30.627Z,2.70
2019-04-06T06:49:00.739Z,2.80
2019-04-06T06:51:30.282Z,3.00
2019-04-06T06:53:59.437Z,3.10
2019-04-06T06:56:28.888Z,3.20
2019-04-06T06:58:58.438Z,3.30
2019-04-06T07:01:27.652Z,3.40
2019-04-06T07:03:57.213Z,3.40
2019-04-06T07:06:26.362Z,3.50
2019-04-06T07:08:56.104Z,3.70
2019-04-06T07:11:26.298Z,4.00
2019-04-06T07:13:55.775Z,4.20
2019-04-06T07:16:25.242Z,4.40
2019-04-06T07:18:54.670Z,4.60
2019-04-06T07:21:23.803Z,4.70
2019-04-06T07:23:52.928Z,4.80
2019-04-06T07:26:22.501Z,5.00
2019-04-06T07:28:51.983Z,5.10
2019-04-06T07:31:21.541Z,5.30
2019-04-06T07:33:51.147Z,5.40
2019-04-06T07:36:20.897Z,5.50
2019-04-06T07:38:50.959Z,5.70
2019-04-06T07:41:20.686Z,5.80
2019-04-06T07:43:50.465Z,6.00
2019-04-06T07:46:20.513Z,6.10
2019-04-06T07:48:50.805Z,6.20
2019-04-06T07:51:20.307Z,6.30
2019-04-06T07:53:49.615Z,6.40
2019-04-06T07:56:20.662Z,6.40
2019-04-06T07:58:50.369Z,6.50
2019-04-06T08:01:19.842Z,6.50
2019-04-06T08:03:49.783Z,6.50
2019-04-06T08:06:19.707Z,6.50
2019-04-06T08:08:49.164Z,6.60
2019-04-06T08:11:19.165Z,6.70
2019-04-06T08:13:48.331Z,6.80
2019-04-06T08:16:18.106Z,6.90
2019-04-06T08:18:47.738Z,7.00
2019-04-06T08:21:19.651Z,7.10
2019-04-06T08:23:48.607Z,7.10
2019-04-06T08:26:17.874Z,7.20
2019-04-06T08:28:59.152Z,7.30
2019-04-06T08:31:19.055Z,7.30
2019-04-06T08:33:48.531Z,7.40
2019-04-06T08:36:18.274Z,7.50
2019-04-06T08:38:47.691Z,7.60
2019-04-06T08:41:16.831Z,7.60
2019-04-06T08:43:46.296Z,7.60
2019-04-06T08:46:16.197Z,7.60
2019-04-06T08:48:45.392Z,7.60
2019-04-06T08:51:14.904Z,7.60
2019-04-06T08:53:44.450Z,7.60
2019-04-06T08:56:14.007Z,7.60
2019-04-06T08:58:43.815Z,7.70
2019-04-06T09:01:13.650Z,7.80
2019-04-06T09:03:42.768Z,7.90
2019-04-06T09:06:12.664Z,7.90
2019-04-06T09:08:42.711Z,8.10
2019-04-06T09:11:12.592Z,8.20
2019-04-06T09:13:41.979Z,8.40
2019-04-06T09:16:11.806Z,8.50
2019-04-06T09:18:41.554Z,8.70
2019-04-06T09:21:11.593Z,8.70
2019-04-06T09:23:41.409Z,8.80
2019-04-06T09:26:11.279Z,9.00
2019-04-06T09:28:40.570Z,9.10
2019-04-06T09:31:09.855Z,9.20
2019-04-06T09:33:39.862Z,9.30
2019-04-06T09:36:09.456Z,9.40
2019-04-06T09:38:38.879Z,9.40
2019-04-06T09:41:08.498Z,9.40
2019-04-06T09:43:38.299Z,9.40
2019-04-06T09:46:14.614Z,9.50
2019-04-06T09:48:52.828Z,9.60
2019-04-06T09:51:38.291Z,9.60
2019-04-06T09:54:23.546Z,9.70
2019-04-06T09:57:11.781Z,9.70
2019-04-06T10:00:06.625Z,9.90
2019-04-06T10:02:51.723Z,9.90
2019-04-06T10:05:39.887Z,9.90
2019-04-06T10:08:28.473Z,10.00
2019-04-06T10:11:22.894Z,10.10
2019-04-06T10:14:02.897Z,10.10
2019-04-06T10:16:53.895Z,10.20
2019-04-06T10:19:58.060Z,10.20
2019-04-06T10:22:35.863Z,10.40
2019-04-06T10:25:23.314Z,10.50
2019-04-06T10:28:18.079Z,10.60
2019-04-06T10:31:12.462Z,10.60
2019-04-06T10:33:59.567Z,10.70
2019-04-06T10:36:56.911Z,10.90
2019-04-06T10:39:34.576Z,11.10
2019-04-06T10:42:28.170Z,11.20
2019-04-06T10:45:09.494Z,11.30
2019-04-06T10:47:50.861Z,11.50
2019-04-06T10:50:39.346Z,11.60
2019-04-06T10:53:26.519Z,11.60
2019-04-06T10:56:11.577Z,11.60
2019-04-06T10:59:09.305Z,11.70
2019-04-06T11:01:54.198Z,11.80
2019-04-06T11:04:31.786Z,11.80
2019-04-06T11:07:35.573Z,11.80
2019-04-06T11:10:36.026Z,11.80
2019-04-06T11:13:27.635Z,11.60
2019-04-06T11:16:14.651Z,11.50
2019-04-06T11:19:05.784Z,11.50
2019-04-06T11:21:46.158Z,11.60
2019-04-06T11:24:41.240Z,11.50
2019-04-06T11:27:28.118Z,11.60
2019-04-06T11:30:15.461Z,11.60
2019-04-06T11:32:55.950Z,11.60
2019-04-06T11:35:37.252Z,11.70
2019-04-06T11:38:22.301Z,11.70
2019-04-06T11:41:17.093Z,11.80
2019-04-06T11:44:03.796Z,11.80
2019-04-06T11:46:53.167Z,11.80
2019-04-06T11:49:36.720Z,11.80
2019-04-06T11:52:37.550Z,11.90
2019-04-06T11:55:14.215Z,11.80
2019-04-06T11:57:55.703Z,11.90
2019-04-06T12:00:37.619Z,11.90
2019-04-06T12:03:25.795Z,11.90
2019-04-06T12:06:12.983Z,12.00
2019-04-06T12:08:57.839Z,12.20
2019-04-06T12:11:37.820Z,12.20
2019-04-06T12:14:23.471Z,12.30
2019-04-06T12:17:14.998Z,12.30
2019-04-06T12:19:59.736Z,12.40
2019-04-06T12:22:46.575Z,12.50
2019-04-06T12:25:37.687Z,12.50
2019-04-06T12:28:25.861Z,12.60
2019-04-06T12:31:11.244Z,12.60
2019-04-06T12:33:48.883Z,12.60
2019-04-06T12:36:22.387Z,12.60
2019-04-06T12:39:13.712Z,12.60
2019-04-06T12:42:01.040Z,12.70
2019-04-06T12:44:55.219Z,12.70
2019-04-06T12:47:50.010Z,12.80
2019-04-06T12:50:29.913Z,12.90
2019-04-06T12:53:24.168Z,13.00
2019-04-06T12:56:11.552Z,13.10
2019-04-06T12:58:50.958Z,13.10
2019-04-06T13:01:36.520Z,13.20
2019-04-06T13:04:23.781Z,13.30
2019-04-06T13:07:12.966Z,13.40
2019-04-06T13:09:58.613Z,13.40
2019-04-06T13:12:40.394Z,13.40
2019-04-06T13:15:36.652Z,13.40
2019-04-06T13:18:21.485Z,13.40
2019-04-06T13:21:03.586Z,13.40
2019-04-06T13:23:47.535Z,13.50
2019-04-06T13:26:51.143Z,13.50
2019-04-06T13:29:39.954Z,13.60
2019-04-06T13:32:27.426Z,13.50
2019-04-06T13:35:28.070Z,13.50
2019-04-06T13:38:28.858Z,13.40
2019-04-06T13:41:35.896Z,13.40
2019-04-06T13:44:28.313Z,13.40
2019-04-06T13:47:19.856Z,13.40
2019-04-06T13:50:11.399Z,13.40
2019-04-06T13:53:12.257Z,13.40
2019-04-06T13:56:06.656Z,13.30
2019-04-06T13:58:48.619Z,13.30
2019-04-06T14:01:37.171Z,13.30
2019-04-06T14:04:25.939Z,13.30
2019-04-06T14:07:17.579Z,13.30
2019-04-06T14:10:24.466Z,13.30
2019-04-06T14:13:15.550Z,13.40
2019-04-06T14:16:02.981Z,13.60
2019-04-06T14:18:50.891Z,13.60
2019-04-06T14:21:38.631Z,13.70
2019-04-06T14:24:27.300Z,13.90
2019-04-06T14:27:18.408Z,14.00
2019-04-06T14:29:56.797Z,14.10
2019-04-06T14:32:48.152Z,14.10
2019-04-06T14:35:34.990Z,14.30
2019-04-06T14:38:23.891Z,14.40
2019-04-06T14:41:16.971Z,14.50
2019-04-06T14:43:58.359Z,14.50
2019-04-06T14:47:01.645Z,14.50
2019-04-06T14:49:42.207Z,14.50
2019-04-06T14:52:30.844Z,14.50
2019-04-06T14:55:25.563Z,14.50
2019-04-06T14:58:11.687Z,14.50
2019-04-06T15:00:58.551Z,14.50
2019-04-06T15:03:36.717Z,14.30
2019-04-06T15:06:30.808Z,14.20
2019-04-06T15:09:12.143Z,14.10
2019-04-06T15:12:00.146Z,14.10
2019-04-06T15:14:43.018Z,14.00
2019-04-06T15:17:43.401Z,13.90
2019-04-06T15:20:19.704Z,13.80
2019-04-06T15:23:11.013Z,13.80
2019-04-06T15:26:00.107Z,13.70
2019-04-06T15:28:51.512Z,13.70
2019-04-06T15:31:47.813Z,13.70
2019-04-06T15:34:47.287Z,13.70
2019-04-06T15:37:30.000Z,13.70
2019-04-06T15:40:30.406Z,13.60
2019-04-06T15:43:21.408Z,13.60
2019-04-06T15:45:59.209Z,13.50
2019-04-06T15:48:44.792Z,13.50
2019-04-06T15:51:23.929Z,13.50
2019-04-06T15:54:21.557Z,13.50
2019-04-06T15:57:07.993Z,13.50
2019-04-06T15:59:59.266Z,13.50
2019-04-06T16:02:46.647Z,13.50
2019-04-06T16:05:24.746Z,13.50
2019-04-06T16:08:18.855Z,13.50
2019-04-06T16:11:22.638Z,13.50
2019-04-06T16:14:01.906Z,13.60
2019-04-06T16:16:43.218Z,13.60
2019-04-06T16:19:22.517Z,13.60
2019-04-06T16:22:08.721Z,13.60
2019-04-06T16:24:59.087Z,13.70
2019-04-06T16:27:46.018Z,13.80
2019-04-06T16:30:34.879Z,13.80
2019-04-06T16:33:19.964Z,13.90
2019-04-06T16:36:02.343Z,13.90
2019-04-06T16:38:41.163Z,14.00
2019-04-06T16:41:44.974Z,14.00
2019-04-06T16:44:32.620Z,14.00
2019-04-06T16:47:36.882Z,14.00
2019-04-06T16:50:16.684Z,14.00
2019-04-06T16:53:14.550Z,13.90
2019-04-06T16:56:00.447Z,13.90
2019-04-06T16:58:45.860Z,13.90
2019-04-06T17:01:22.090Z,13.90
2019-04-06T17:03:58.373Z,13.90
2019-04-06T17:06:49.377Z,13.80
2019-04-06T17:09:36.255Z,13.80
2019-04-06T17:12:18.626Z,13.80
2019-04-06T17:15:06.092Z,13.70
2019-04-06T17:18:03.804Z,13.70
2019-04-06T17:20:47.501Z,13.60
2019-04-06T17:23:28.297Z,13.60
2019-04-06T17:26:15.209Z,13.50
2019-04-06T17:28:54.783Z,13.50
2019-04-06T17:31:31.110Z,13.50
2019-04-06T17:34:19.211Z,13.40
2019-04-06T17:36:53.746Z,13.40
2019-04-06T17:39:48.225Z,13.40
2019-04-06T17:42:39.535Z,13.30
2019-04-06T17:45:33.622Z,13.20
2019-04-06T17:48:24.962Z,13.20
2019-04-06T17:51:09.247Z,13.10
2019-04-06T17:53:57.001Z,13.10
2019-04-06T17:56:51.490Z,13.00
2019-04-06T17:59:49.181Z,13.00
2019-04-06T18:02:48.699Z,13.00
2019-04-06T18:05:43.146Z,12.90
2019-04-06T18:08:35.375Z,12.80
2019-04-06T18:11:12.638Z,12.70
2019-04-06T18:13:48.205Z,12.60
2019-04-06T18:16:20.127Z,12.50
2019-04-06T18:18:49.899Z,12.40
2019-04-06T18:21:19.954Z,12.30
2019-04-06T18:23:50.606Z,12.20
2019-04-06T18:26:20.464Z,12.20
2019-04-06T18:28:50.898Z,12.10
2019-04-06T18:31:27.440Z,12.00
2019-04-06T18:33:56.987Z,12.00
2019-04-06T18:36:34.483Z,11.90
2019-04-06T18:39:08.241Z,11.80
2019-04-06T18:41:38.321Z,11.70
2019-04-06T18:44:07.952Z,11.70
2019-04-06T18:46:37.467Z,11.60
2019-04-06T18:49:07.013Z,11.50
2019-04-06T18:51:36.612Z,11.40
2019-04-06T18:54:08.322Z,11.40
2019-04-06T18:56:37.206Z,11.30
2019-04-06T18:59:07.889Z,11.30
2019-04-06T19:01:37.447Z,11.20
2019-04-06T19:04:07.135Z,11.10
2019-04-06T19:06:37.365Z,11.10
2019-04-06T19:09:19.836Z,11.00
2019-04-06T19:11:39.474Z,10.90
2019-04-06T19:14:09.080Z,10.90
2019-04-06T19:16:39.272Z,10.90
2019-04-06T19:19:09.023Z,10.80
2019-04-06T19:21:38.717Z,10.70
2019-04-06T19:24:08.832Z,10.60
2019-04-06T19:26:38.723Z,10.50
2019-04-06T19:29:08.337Z,10.40
2019-04-06T19:31:38.555Z,10.30
2019-04-06T19:34:07.721Z,10.30
2019-04-06T19:36:37.871Z,10.20
2019-04-06T19:39:11.071Z,10.10
2019-04-06T19:41:40.773Z,10.00
2019-04-06T19:44:10.285Z,9.90
2019-04-06T19:46:40.438Z,9.80
2019-04-06T19:49:09.998Z,9.70
2019-04-06T19:51:39.704Z,9.60
2019-04-06T19:54:09.031Z,9.60
2019-04-06T19:56:38.582Z,9.50
2019-04-06T19:59:08.701Z,9.50
2019-04-06T20:01:38.659Z,9.40
2019-04-06T20:04:08.085Z,9.30
2019-04-06T20:06:38.503Z,9.20
2019-04-06T20:09:08.592Z,9.10
2019-04-06T20:11:37.842Z,9.10
2019-04-06T20:14:07.324Z,9.00
2019-04-06T20:16:37.274Z,9.00
2019-04-06T20:19:06.511Z,8.90
2019-04-06T20:21:36.189Z,8.90
2019-04-06T20:24:05.536Z,8.90
2019-04-06T20:26:34.901Z,8.80
2019-04-06T20:29:04.726Z,8.80
2019-04-06T20:31:34.149Z,8.80
2019-04-06T20:34:04.978Z,8.80
2019-04-06T20:36:35.213Z,8.80
2019-04-06T20:39:07.782Z,8.70
2019-04-06T20:41:38.048Z,8.70
2019-04-06T20:44:07.842Z,8.70
2019-04-06T20:46:37.712Z,8.60
2019-04-06T20:49:07.624Z,8.50
2019-04-06T20:51:37.187Z,8.50
2019-04-06T20:54:07.399Z,8.30
2019-04-06T20:56:37.162Z,8.20
2019-04-06T20:59:06.495Z,8.10
2019-04-06T21:01:36.339Z,8.10
2019-04-06T21:04:05.831Z,8.00
2019-04-06T21:06:34.967Z,7.90
2019-04-06T21:09:08.789Z,7.90
2019-04-06T21:11:39.267Z,7.80
2019-04-06T21:14:08.989Z,7.80
2019-04-06T21:16:39.151Z,7.70
2019-04-06T21:19:09.291Z,7.70
2019-04-06T21:21:38.411Z,7.70
2019-04-06T21:24:08.243Z,7.60
2019-04-06T21:26:38.101Z,7.60
2019-04-06T21:29:07.879Z,7.60
2019-04-06T21:31:37.968Z,7.50
2019-04-06T21:34:12.685Z,7.50
2019-04-06T21:36:39.292Z,7.50
2019-04-06T21:39:08.566Z,7.50
2019-04-06T21:41:38.491Z,7.50
2019-04-06T21:44:08.285Z,7.50
2019-04-06T21:46:38.445Z,7.40
2019-04-06T21:49:07.736Z,7.40
2019-04-06T21:51:37.929Z,7.40
2019-04-06T21:54:07.871Z,7.40
2019-04-06T21:56:37.512Z,7.40
2019-04-06T21:59:07.842Z,7.40
2019-04-06T22:01:37.311Z,7.40
2019-04-06T22:04:06.861Z,7.40
2019-04-06T22:06:35.994Z,7.40
2019-04-06T22:09:11.040Z,7.40
2019-04-06T22:11:40.308Z,7.40
2019-04-06T22:14:10.260Z,7.30
2019-04-06T22:16:39.521Z,7.40
2019-04-06T22:19:09.520Z,7.30
2019-04-06T22:21:39.695Z,7.30
2019-04-06T22:24:09.512Z,7.30
2019-04-06T22:26:39.527Z,7.20
2019-04-06T22:29:09.168Z,7.10
2019-04-06T22:31:38.819Z,7.10
2019-04-06T22:34:08.087Z,7.00
2019-04-06T22:36:38.065Z,7.00
2019-04-06T22:39:09.895Z,7.00
2019-04-06T22:41:39.938Z,6.90
2019-04-06T22:44:09.662Z,6.90
2019-04-06T22:46:39.168Z,6.90
2019-04-06T22:49:08.390Z,6.90
2019-04-06T22:51:38.126Z,6.80
2019-04-06T22:54:08.096Z,6.80
2019-04-06T22:56:37.562Z,6.80
2019-04-06T22:59:06.716Z,6.80
2019-04-06T23:01:38.049Z,6.80
2019-04-06T23:04:32.301Z,6.80
2019-04-06T23:07:05.810Z,6.80
2019-04-06T23:09:35.044Z,6.70
2019-04-06T23:12:04.479Z,6.60
2019-04-06T23:14:34.047Z,6.60
2019-04-06T23:17:03.730Z,6.60
2019-04-06T23:19:33.694Z,6.50
2019-04-06T23:22:03.470Z,6.50
2019-04-06T23:24:33.190Z,6.40
2019-04-06T23:27:02.746Z,6.40
2019-04-06T23:29:32.531Z,6.40
2019-04-06T23:32:02.639Z,6.30
2019-04-06T23:34:32.554Z,6.30
2019-04-06T23:37:02.466Z,6.30
2019-04-06T23:39:32.384Z,6.20
2019-04-06T23:42:01.504Z,6.30
2019-04-06T23:44:31.779Z,6.20
2019-04-06T23:47:01.874Z,6.20
2019-04-06T23:49:31.826Z,6.10
2019-04-06T23:52:01.643Z,6.10
2019-04-06T23:54:31.298Z,6.00
2019-04-06T23:57:01.796Z,6.00
2019-04-06T23:59:31.585Z,6.00
